createdAt,value
2022-11-28T00:00:53.290Z,0
2022-11-28T00:01:54.391Z,0
2022-11-28T00:02:55.777Z,0
2022-11-28T00:03:55.879Z,0
2022-11-28T00:04:56.760Z,0
2022-11-28T00:05:58.532Z,0
2022-11-28T00:06:57.328Z,0
2022-11-28T00:07:58.341Z,0
2022-11-28T00:08:58.929Z,0
2022-11-28T00:09:59.561Z,0
2022-11-28T00:11:00.634Z,0
2022-11-28T00:12:00.916Z,0
2022-11-28T00:13:01.415Z,0
2022-11-28T00:14:01.340Z,0
2022-11-28T00:15:02.270Z,0
2022-11-28T00:16:03.078Z,0
2022-11-28T00:17:03.070Z,0
2022-11-28T00:18:04.514Z,0
2022-11-28T00:19:04.424Z,0
2022-11-28T00:20:05.638Z,0
2022-11-28T00:21:05.841Z,0
2022-11-28T00:22:06.444Z,0
2022-11-28T00:23:06.348Z,0
2022-11-28T00:24:06.981Z,0
2022-11-28T00:25:08.189Z,0
2022-11-28T00:26:07.812Z,0
2022-11-28T00:27:08.702Z,0
2022-11-28T00:28:09.338Z,0
2022-11-28T00:29:10.824Z,0
2022-11-28T00:30:11.021Z,0
2022-11-28T00:31:11.959Z,0
2022-11-28T00:32:12.586Z,0
2022-11-28T00:33:12.754Z,0
2022-11-28T00:34:12.968Z,0
2022-11-28T00:35:12.576Z,0
2022-11-28T00:36:13.035Z,0
2022-11-28T00:37:13.319Z,0
2022-11-28T00:38:14.238Z,0
2022-11-28T00:39:14.165Z,0
2022-11-28T00:40:14.508Z,0
2022-11-28T00:41:14.749Z,0
2022-11-28T00:42:15.671Z,0
2022-11-28T00:43:16.601Z,0
2022-11-28T00:44:17.234Z,0
2022-11-28T00:45:18.419Z,0
2022-11-28T00:46:20.004Z,0
2022-11-28T00:47:20.515Z,0
2022-11-28T00:48:20.637Z,0
2022-11-28T00:49:20.537Z,0
2022-11-28T00:50:21.828Z,0
2022-11-28T00:51:21.757Z,0
2022-11-28T00:52:22.039Z,0
2022-11-28T00:53:22.644Z,0
2022-11-28T00:54:22.996Z,0
2022-11-28T00:55:24.473Z,0
2022-11-28T00:56:24.684Z,0
2022-11-28T00:57:24.890Z,0
2022-11-28T00:58:24.805Z,0
2022-11-28T00:59:25.135Z,0
2022-11-28T01:00:26.088Z,0
2022-11-28T01:01:26.542Z,0
2022-11-28T01:02:27.117Z,0
2022-11-28T01:03:27.064Z,0
2022-11-28T01:04:27.699Z,0
2022-11-28T01:05:28.628Z,0
2022-11-28T01:06:28.359Z,0
2022-11-28T01:07:29.671Z,0
2022-11-28T01:08:30.228Z,0
2022-11-28T01:09:30.436Z,0
2022-11-28T01:10:30.070Z,0
2022-11-28T01:11:30.586Z,0
2022-11-28T01:12:31.786Z,0
2022-11-28T01:13:31.987Z,0
2022-11-28T01:14:32.178Z,0
2022-11-28T01:15:33.091Z,0
2022-11-28T01:16:34.532Z,0
2022-11-28T01:17:34.515Z,0
2022-11-28T01:18:35.970Z,0
2022-11-28T01:19:36.152Z,0
2022-11-28T01:20:36.343Z,0
2022-11-28T01:21:37.576Z,0
2022-11-28T01:22:37.862Z,0
2022-11-28T01:23:39.068Z,0
2022-11-28T01:24:39.569Z,0
2022-11-28T01:25:40.196Z,0
2022-11-28T01:26:40.396Z,0
2022-11-28T01:27:40.284Z,0
2022-11-28T01:28:41.470Z,0
2022-11-28T01:29:41.657Z,0
2022-11-28T01:30:42.275Z,0
2022-11-28T01:31:43.755Z,0
2022-11-28T01:32:43.721Z,0
2022-11-28T01:33:44.859Z,0
2022-11-28T01:34:45.660Z,0
2022-11-28T01:35:45.573Z,0
2022-11-28T01:36:46.599Z,0
2022-11-28T01:37:46.588Z,0
2022-11-28T01:38:47.779Z,0
2022-11-28T01:39:48.123Z,0
2022-11-28T01:40:49.034Z,0
2022-11-28T01:41:49.843Z,0
2022-11-28T01:42:50.459Z,0
2022-11-28T01:43:51.942Z,0
2022-11-28T01:44:52.918Z,0
2022-11-28T01:45:52.262Z,0
2022-11-28T01:46:53.446Z,0
2022-11-28T01:47:53.749Z,0
2022-11-28T01:48:53.879Z,0
2022-11-28T01:49:53.787Z,0
2022-11-28T01:50:54.695Z,0
2022-11-28T01:51:54.609Z,0
2022-11-28T01:52:54.622Z,0
2022-11-28T01:53:55.254Z,0
2022-11-28T01:54:56.161Z,0
2022-11-28T01:55:56.066Z,0
2022-11-28T01:56:57.287Z,0
2022-11-28T01:57:57.173Z,0
2022-11-28T01:58:58.089Z,0
2022-11-28T01:59:58.700Z,0
2022-11-28T02:01:00.303Z,0
2022-11-28T02:02:00.665Z,0
2022-11-28T02:03:01.044Z,0
2022-11-28T02:04:01.476Z,0
2022-11-28T02:05:01.380Z,0
2022-11-28T02:06:02.310Z,0
2022-11-28T02:07:02.608Z,0
2022-11-28T02:08:02.871Z,0
2022-11-28T02:09:03.071Z,0
2022-11-28T02:10:04.284Z,0
2022-11-28T02:11:03.875Z,0
2022-11-28T02:12:05.254Z,0
2022-11-28T02:13:05.691Z,0
2022-11-28T02:14:06.878Z,0
2022-11-28T02:15:06.501Z,0
2022-11-28T02:16:08.020Z,0
2022-11-28T02:17:08.075Z,0
2022-11-28T02:18:08.262Z,0
2022-11-28T02:19:08.969Z,0
2022-11-28T02:20:08.879Z,0
2022-11-28T02:21:09.364Z,0
2022-11-28T02:22:09.980Z,0
2022-11-28T02:23:10.270Z,0
2022-11-28T02:24:11.187Z,0
2022-11-28T02:25:11.815Z,0
2022-11-28T02:26:13.075Z,0
2022-11-28T02:27:13.562Z,0
2022-11-28T02:28:13.748Z,0
2022-11-28T02:29:14.361Z,0
2022-11-28T02:30:14.985Z,0
2022-11-28T02:31:16.137Z,0
2022-11-28T02:32:16.394Z,0
2022-11-28T02:33:17.593Z,0
2022-11-28T02:34:17.736Z,0
2022-11-28T02:35:17.635Z,0
2022-11-28T02:36:17.823Z,0
2022-11-28T02:37:18.855Z,0
2022-11-28T02:38:19.151Z,0
2022-11-28T02:39:20.068Z,0
2022-11-28T02:40:20.996Z,0
2022-11-28T02:41:21.908Z,0
2022-11-28T02:42:22.047Z,0
2022-11-28T02:43:21.955Z,0
2022-11-28T02:44:23.142Z,0
2022-11-28T02:45:23.458Z,0
2022-11-28T02:46:25.112Z,0
2022-11-28T02:47:25.095Z,0
2022-11-28T02:48:25.718Z,0
2022-11-28T02:49:27.130Z,0
2022-11-28T02:50:27.319Z,0
2022-11-28T02:51:27.807Z,0
2022-11-28T02:52:27.775Z,0
2022-11-28T02:53:29.368Z,0
2022-11-28T02:54:28.986Z,0
2022-11-28T02:55:29.351Z,0
2022-11-28T02:56:30.555Z,0
2022-11-28T02:57:30.889Z,0
2022-11-28T02:58:32.373Z,0
2022-11-28T02:59:32.569Z,0
2022-11-28T03:00:33.307Z,0
2022-11-28T03:01:33.577Z,0
2022-11-28T03:02:34.870Z,0
2022-11-28T03:03:33.899Z,0
2022-11-28T03:04:35.322Z,0
2022-11-28T03:05:35.361Z,0
2022-11-28T03:06:35.288Z,0
2022-11-28T03:07:35.951Z,0
2022-11-28T03:08:35.366Z,0
2022-11-28T03:09:35.994Z,0
2022-11-28T03:10:36.891Z,0
2022-11-28T03:11:36.804Z,0
2022-11-28T03:12:37.913Z,0
2022-11-28T03:13:38.495Z,0
2022-11-28T03:14:39.070Z,0
2022-11-28T03:15:38.774Z,0
2022-11-28T03:16:39.997Z,0
2022-11-28T03:17:40.475Z,0
2022-11-28T03:18:41.101Z,0
2022-11-28T03:19:42.230Z,0
2022-11-28T03:20:41.861Z,0
2022-11-28T03:21:43.044Z,0
2022-11-28T03:22:43.731Z,0
2022-11-28T03:23:44.024Z,0
2022-11-28T03:24:44.731Z,0
2022-11-28T03:25:44.787Z,0
2022-11-28T03:26:45.679Z,0
2022-11-28T03:27:46.614Z,0
2022-11-28T03:28:53.165Z,0
2022-11-28T03:29:46.783Z,0
2022-11-28T03:30:47.412Z,0
2022-11-28T03:31:48.403Z,0
2022-11-28T03:32:48.786Z,0
2022-11-28T03:33:49.702Z,0
2022-11-28T03:34:50.813Z,0
2022-11-28T03:35:50.429Z,0
2022-11-28T03:36:50.919Z,0
2022-11-28T03:37:50.961Z,0
2022-11-28T03:38:51.556Z,0
2022-11-28T03:39:52.035Z,0
2022-11-28T03:40:52.228Z,0
2022-11-28T03:41:52.418Z,0
2022-11-28T03:42:52.926Z,0
2022-11-28T03:43:53.817Z,0
2022-11-28T03:44:55.129Z,0
2022-11-28T03:45:55.319Z,0
2022-11-28T03:46:55.789Z,0
2022-11-28T03:47:55.964Z,0
2022-11-28T03:48:56.622Z,0
2022-11-28T03:49:57.947Z,0
2022-11-28T03:50:58.442Z,0
2022-11-28T03:51:58.652Z,0
2022-11-28T03:52:59.591Z,0
2022-11-28T03:53:59.901Z,0
2022-11-28T03:55:00.238Z,0
2022-11-28T03:56:01.437Z,0
2022-11-28T03:57:01.748Z,0
2022-11-28T03:58:02.659Z,0
2022-11-28T03:59:03.917Z,0
2022-11-28T04:00:03.822Z,0
2022-11-28T04:01:05.037Z,0
2022-11-28T04:02:04.871Z,0
2022-11-28T04:03:06.032Z,0
2022-11-28T04:04:05.498Z,0
2022-11-28T04:05:06.931Z,0
2022-11-28T04:06:06.569Z,0
2022-11-28T04:07:07.757Z,0
2022-11-28T04:08:08.442Z,0
2022-11-28T04:09:12.958Z,0
2022-11-28T04:10:08.792Z,0
2022-11-28T04:11:09.425Z,0
2022-11-28T04:12:10.340Z,0
2022-11-28T04:13:10.872Z,0
2022-11-28T04:14:11.485Z,0
2022-11-28T04:15:11.972Z,0
2022-11-28T04:16:12.376Z,0
2022-11-28T04:17:12.454Z,0
2022-11-28T04:18:13.776Z,0
2022-11-28T04:19:13.393Z,0
2022-11-28T04:20:14.820Z,0
2022-11-28T04:21:15.043Z,0
2022-11-28T04:22:14.949Z,0
2022-11-28T04:23:15.893Z,0
2022-11-28T04:24:16.189Z,0
2022-11-28T04:25:17.136Z,0
2022-11-28T04:26:17.344Z,0
2022-11-28T04:27:17.959Z,0
2022-11-28T04:28:19.138Z,0
2022-11-28T04:29:19.047Z,0
2022-11-28T04:30:19.962Z,0
2022-11-28T04:31:20.850Z,0
2022-11-28T04:32:22.135Z,0
2022-11-28T04:33:21.759Z,0
2022-11-28T04:34:22.351Z,0
2022-11-28T04:35:23.538Z,0
2022-11-28T04:36:23.151Z,0
2022-11-28T04:37:24.642Z,0
2022-11-28T04:38:25.247Z,0
2022-11-28T04:39:25.256Z,0
2022-11-28T04:40:26.739Z,0
2022-11-28T04:41:26.648Z,0
2022-11-28T04:42:27.567Z,0
2022-11-28T04:43:28.398Z,0
2022-11-28T04:44:28.604Z,0
2022-11-28T04:45:29.258Z,0
2022-11-28T04:46:30.851Z,0
2022-11-28T04:47:31.484Z,0
2022-11-28T04:48:39.779Z,0
2022-11-28T04:49:32.416Z,0
2022-11-28T04:50:33.553Z,0
2022-11-28T04:51:34.189Z,0
2022-11-28T04:52:34.101Z,0
2022-11-28T04:53:35.313Z,0
2022-11-28T04:54:35.606Z,0
2022-11-28T04:55:35.998Z,0
2022-11-28T04:56:36.901Z,0
2022-11-28T04:57:37.896Z,0
2022-11-28T04:58:39.084Z,0
2022-11-28T04:59:39.015Z,0
2022-11-28T05:00:40.080Z,0
2022-11-28T05:01:41.331Z,0
2022-11-28T05:02:41.578Z,0
2022-11-28T05:03:48.244Z,0
2022-11-28T05:04:43.394Z,0
2022-11-28T05:05:43.625Z,0
2022-11-28T05:06:43.255Z,0
2022-11-28T05:07:44.738Z,0
2022-11-28T05:08:45.479Z,0
2022-11-28T05:09:46.061Z,0
2022-11-28T05:10:45.960Z,0
2022-11-28T05:11:46.568Z,0
2022-11-28T05:12:47.478Z,0
2022-11-28T05:13:48.549Z,0
2022-11-28T05:14:49.651Z,0
2022-11-28T05:15:49.290Z,0
2022-11-28T05:16:50.239Z,0
2022-11-28T05:17:53.437Z,0
2022-11-28T05:18:51.661Z,0
2022-11-28T05:19:51.296Z,0
2022-11-28T05:20:52.438Z,0
2022-11-28T05:21:52.358Z,0
2022-11-28T05:22:53.266Z,0
2022-11-28T05:23:53.195Z,0
2022-11-28T05:24:53.229Z,0
2022-11-28T05:25:53.861Z,0
2022-11-28T05:26:55.054Z,0
2022-11-28T05:27:55.691Z,0
2022-11-28T05:28:56.372Z,0
2022-11-28T05:30:03.147Z,0
2022-11-28T05:30:58.063Z,0
2022-11-28T05:31:58.902Z,0
2022-11-28T05:32:58.958Z,0
2022-11-28T05:33:59.602Z,0
2022-11-28T05:35:00.785Z,0
2022-11-28T05:36:00.896Z,0
2022-11-28T05:37:00.514Z,0
2022-11-28T05:38:01.151Z,0
2022-11-28T05:39:01.549Z,0
2022-11-28T05:40:01.550Z,0
2022-11-28T05:41:02.453Z,0
2022-11-28T05:42:03.750Z,0
2022-11-28T05:43:03.664Z,0
2022-11-28T05:44:04.794Z,0
2022-11-28T05:45:04.399Z,0
2022-11-28T05:46:05.407Z,0
2022-11-28T05:47:06.474Z,0
2022-11-28T05:48:06.673Z,0
2022-11-28T05:49:07.267Z,0
2022-11-28T05:50:06.887Z,0
2022-11-28T05:51:08.346Z,0
2022-11-28T05:52:08.556Z,0
2022-11-28T05:53:08.764Z,0
2022-11-28T05:54:08.975Z,0
2022-11-28T05:55:08.978Z,0
2022-11-28T05:56:09.890Z,0
2022-11-28T05:57:10.230Z,0
2022-11-28T05:58:11.437Z,0
2022-11-28T05:59:11.356Z,0
2022-11-28T06:00:11.973Z,0
2022-11-28T06:01:12.872Z,0
2022-11-28T06:02:13.668Z,0
2022-11-28T06:03:14.406Z,0
2022-11-28T06:04:15.282Z,0
2022-11-28T06:05:49.779Z,0
2022-11-28T06:06:15.950Z,0
2022-11-28T06:07:15.638Z,0
2022-11-28T06:08:16.636Z,0
2022-11-28T06:09:19.220Z,0
2022-11-28T06:10:17.994Z,0
2022-11-28T06:11:18.892Z,0
2022-11-28T06:12:20.081Z,0
2022-11-28T06:13:21.011Z,0
2022-11-28T06:14:22.118Z,0
2022-11-28T06:15:22.707Z,0
2022-11-28T06:16:22.734Z,0
2022-11-28T06:17:22.781Z,0
2022-11-28T06:18:23.269Z,0
2022-11-28T06:19:24.380Z,4
2022-11-28T06:20:24.100Z,4
2022-11-28T06:21:25.525Z,4
2022-11-28T06:22:25.438Z,0
2022-11-28T06:23:26.329Z,0
2022-11-28T06:24:27.150Z,0
2022-11-28T06:25:27.439Z,4
2022-11-28T06:26:28.346Z,4
2022-11-28T06:27:28.727Z,4
2022-11-28T06:28:29.919Z,0
2022-11-28T06:29:29.834Z,4
2022-11-28T06:30:31.052Z,4
2022-11-28T06:31:31.224Z,4
2022-11-28T06:32:33.423Z,8
2022-11-28T06:33:31.634Z,8
2022-11-28T06:34:32.157Z,8
2022-11-28T06:35:32.341Z,4
2022-11-28T06:36:33.059Z,8
2022-11-28T06:37:32.970Z,8
2022-11-28T06:38:32.303Z,8
2022-11-28T06:39:33.325Z,12
2022-11-28T06:40:33.614Z,12
2022-11-28T06:41:33.827Z,8
2022-11-28T06:42:34.446Z,12
2022-11-28T06:43:35.665Z,12
2022-11-28T06:44:35.465Z,16
2022-11-28T06:45:36.621Z,12
2022-11-28T06:46:36.877Z,16
2022-11-28T06:47:36.793Z,16
2022-11-28T06:48:37.724Z,16
2022-11-28T06:49:38.762Z,20
2022-11-28T06:50:38.810Z,20
2022-11-28T06:51:40.975Z,20
2022-11-28T06:52:40.886Z,20
2022-11-28T06:53:42.635Z,20
2022-11-28T06:54:42.860Z,20
2022-11-28T06:55:42.577Z,20
2022-11-28T06:56:43.916Z,24
2022-11-28T06:57:44.579Z,28
2022-11-28T06:58:44.771Z,28
2022-11-28T06:59:45.787Z,28
2022-11-28T07:00:46.785Z,32
2022-11-28T07:01:46.635Z,36
2022-11-28T07:02:47.075Z,36
2022-11-28T07:03:46.806Z,40
2022-11-28T07:04:48.025Z,36
2022-11-28T07:05:48.240Z,40
2022-11-28T07:06:48.950Z,44
2022-11-28T07:08:04.753Z,48
2022-11-28T07:08:49.159Z,48
2022-11-28T07:09:51.314Z,48
2022-11-28T07:10:50.620Z,52
2022-11-28T07:11:51.251Z,52
2022-11-28T07:12:52.102Z,52
2022-11-28T07:13:52.851Z,56
2022-11-28T07:14:53.017Z,60
2022-11-28T07:15:53.908Z,60
2022-11-28T07:16:55.008Z,64
2022-11-28T07:17:54.753Z,64
2022-11-28T07:18:55.969Z,68
2022-11-28T07:20:01.334Z,72
2022-11-28T07:20:56.531Z,76
2022-11-28T07:21:57.957Z,80
2022-11-28T07:22:58.442Z,84
2022-11-28T07:23:58.362Z,88
2022-11-28T07:24:59.205Z,92
2022-11-28T07:25:59.216Z,100
2022-11-28T07:27:00.171Z,104
2022-11-28T07:28:00.102Z,108
2022-11-28T07:29:00.288Z,112
2022-11-28T07:30:00.902Z,116
2022-11-28T07:31:01.800Z,120
2022-11-28T07:32:02.674Z,124
2022-11-28T07:33:03.427Z,128
2022-11-28T07:34:04.414Z,132
2022-11-28T07:35:04.332Z,140
2022-11-28T07:36:05.540Z,140
2022-11-28T07:37:06.240Z,144
2022-11-28T07:38:06.133Z,148
2022-11-28T07:39:06.331Z,152
2022-11-28T07:40:06.937Z,156
2022-11-28T07:41:07.529Z,164
2022-11-28T07:42:08.063Z,168
2022-11-28T07:43:08.752Z,176
2022-11-28T07:44:09.248Z,180
2022-11-28T07:45:09.959Z,184
2022-11-28T07:46:12.584Z,188
2022-11-28T07:47:11.481Z,200
2022-11-28T07:48:11.405Z,200
2022-11-28T07:49:11.624Z,208
2022-11-28T07:50:12.142Z,212
2022-11-28T07:51:12.036Z,224
2022-11-28T07:52:12.980Z,228
2022-11-28T07:53:18.288Z,232
2022-11-28T07:54:13.664Z,236
2022-11-28T07:55:14.712Z,244
2022-11-28T07:56:15.235Z,248
2022-11-28T07:57:24.044Z,256
2022-11-28T07:58:15.692Z,260
2022-11-28T07:59:16.165Z,264
2022-11-28T08:00:17.072Z,268
2022-11-28T08:01:18.733Z,272
2022-11-28T08:02:19.015Z,276
2022-11-28T08:03:18.804Z,284
2022-11-28T08:04:20.599Z,284
2022-11-28T08:05:21.314Z,288
2022-11-28T08:06:21.513Z,292
2022-11-28T08:07:22.675Z,296
2022-11-28T08:08:22.372Z,300
2022-11-28T08:09:23.567Z,304
2022-11-28T08:10:24.091Z,304
2022-11-28T08:11:24.644Z,308
2022-11-28T08:12:25.011Z,308
2022-11-28T08:13:25.931Z,316
2022-11-28T08:14:25.864Z,316
2022-11-28T08:15:27.150Z,320
2022-11-28T08:16:27.894Z,320
2022-11-28T08:17:27.920Z,324
2022-11-28T08:18:28.809Z,324
2022-11-28T08:19:40.947Z,332
2022-11-28T08:20:30.850Z,332
2022-11-28T08:21:31.341Z,336
2022-11-28T08:22:31.560Z,336
2022-11-28T08:23:32.060Z,340
2022-11-28T08:24:32.974Z,348
2022-11-28T08:25:33.183Z,348
2022-11-28T08:26:39.587Z,352
2022-11-28T08:27:34.487Z,356
2022-11-28T08:28:35.199Z,360
2022-11-28T08:29:36.103Z,364
2022-11-28T08:30:37.245Z,368
2022-11-28T08:31:37.476Z,368
2022-11-28T08:32:38.668Z,376
2022-11-28T08:33:39.302Z,376
2022-11-28T08:34:39.491Z,380
2022-11-28T08:35:40.799Z,380
2022-11-28T08:36:41.061Z,384
2022-11-28T08:37:41.621Z,384
2022-11-28T08:38:43.188Z,388
2022-11-28T08:39:41.749Z,388
2022-11-28T08:40:42.462Z,388
2022-11-28T08:41:42.386Z,384
2022-11-28T08:42:43.307Z,384
2022-11-28T08:43:44.797Z,384
2022-11-28T08:44:45.340Z,376
2022-11-28T08:45:46.071Z,368
2022-11-28T08:46:46.880Z,364
2022-11-28T08:47:46.787Z,360
2022-11-28T08:48:47.424Z,356
2022-11-28T08:49:49.587Z,352
2022-11-28T08:50:53.583Z,352
2022-11-28T08:51:49.783Z,344
2022-11-28T08:52:51.038Z,344
2022-11-28T08:53:59.269Z,340
2022-11-28T08:54:51.967Z,336
2022-11-28T08:55:52.920Z,336
2022-11-28T08:56:53.409Z,332
2022-11-28T08:57:53.619Z,328
2022-11-28T08:58:53.533Z,324
2022-11-28T08:59:54.750Z,320
2022-11-28T09:00:54.733Z,324
2022-11-28T09:01:56.344Z,320
2022-11-28T09:02:55.965Z,324
2022-11-28T09:03:57.783Z,324
2022-11-28T09:04:57.558Z,324
2022-11-28T09:05:58.588Z,328
2022-11-28T09:06:58.239Z,332
2022-11-28T09:07:59.664Z,336
2022-11-28T09:08:59.309Z,340
2022-11-28T09:10:00.706Z,344
2022-11-28T09:11:00.927Z,348
2022-11-28T09:12:01.422Z,356
2022-11-28T09:13:01.919Z,360
2022-11-28T09:14:02.589Z,368
2022-11-28T09:15:02.231Z,368
2022-11-28T09:16:04.678Z,376
2022-11-28T09:17:04.727Z,376
2022-11-28T09:18:04.292Z,380
2022-11-28T09:19:04.375Z,388
2022-11-28T09:20:05.313Z,388
2022-11-28T09:21:05.536Z,392
2022-11-28T09:22:08.748Z,396
2022-11-28T09:23:07.319Z,400
2022-11-28T09:24:06.944Z,404
2022-11-28T09:25:08.201Z,408
2022-11-28T09:26:08.551Z,412
2022-11-28T09:27:08.752Z,420
2022-11-28T09:28:08.985Z,424
2022-11-28T09:29:09.543Z,428
2022-11-28T09:30:09.169Z,424
2022-11-28T09:31:10.588Z,428
2022-11-28T09:32:11.037Z,432
2022-11-28T09:33:12.302Z,436
2022-11-28T09:34:12.304Z,440
2022-11-28T09:35:12.562Z,452
2022-11-28T09:36:13.626Z,460
2022-11-28T09:37:16.537Z,468
2022-11-28T09:38:15.105Z,480
2022-11-28T09:39:15.018Z,480
2022-11-28T09:40:25.820Z,484
2022-11-28T09:41:15.775Z,492
2022-11-28T09:42:16.279Z,492
2022-11-28T09:43:16.206Z,496
2022-11-28T09:44:16.822Z,504
2022-11-28T09:45:17.774Z,508
2022-11-28T09:46:17.925Z,512
2022-11-28T09:47:18.406Z,520
2022-11-28T09:48:19.597Z,524
2022-11-28T09:49:19.798Z,528
2022-11-28T09:50:20.285Z,528
2022-11-28T09:51:20.813Z,532
2022-11-28T09:52:21.247Z,532
2022-11-28T09:53:22.422Z,528
2022-11-28T09:54:22.940Z,528
2022-11-28T09:55:22.596Z,524
2022-11-28T09:56:22.927Z,520
2022-11-28T09:57:23.424Z,516
2022-11-28T09:58:23.041Z,508
2022-11-28T09:59:23.955Z,500
2022-11-28T10:00:24.834Z,492
2022-11-28T10:01:25.037Z,488
2022-11-28T10:02:25.981Z,484
2022-11-28T10:03:26.699Z,480
2022-11-28T10:04:27.620Z,472
2022-11-28T10:05:27.676Z,472
2022-11-28T10:06:28.127Z,472
2022-11-28T10:07:28.999Z,472
2022-11-28T10:08:29.125Z,472
2022-11-28T10:09:29.347Z,472
2022-11-28T10:10:29.669Z,472
2022-11-28T10:11:31.016Z,476
2022-11-28T10:12:32.217Z,480
2022-11-28T10:14:11.942Z,488
2022-11-28T10:14:33.155Z,492
2022-11-28T10:15:34.373Z,496
2022-11-28T10:16:35.533Z,504
2022-11-28T10:17:35.886Z,512
2022-11-28T10:18:36.382Z,520
2022-11-28T10:20:08.595Z,540
2022-11-28T10:20:37.264Z,544
2022-11-28T10:21:37.672Z,560
2022-11-28T10:22:38.866Z,572
2022-11-28T10:23:40.101Z,588
2022-11-28T10:24:40.631Z,604
2022-11-28T10:25:41.439Z,616
2022-11-28T10:26:41.530Z,632
2022-11-28T10:27:42.452Z,652
2022-11-28T10:28:43.664Z,668
2022-11-28T10:29:43.777Z,684
2022-11-28T10:30:44.063Z,704
2022-11-28T10:31:44.326Z,716
2022-11-28T10:32:44.945Z,732
2022-11-28T10:33:45.159Z,748
2022-11-28T10:34:45.791Z,768
2022-11-28T10:35:46.713Z,784
2022-11-28T10:36:48.041Z,796
2022-11-28T10:37:48.255Z,808
2022-11-28T10:38:49.501Z,816
2022-11-28T10:39:50.297Z,824
2022-11-28T10:40:50.517Z,832
2022-11-28T10:41:50.471Z,836
2022-11-28T10:42:51.672Z,840
2022-11-28T10:43:52.579Z,848
2022-11-28T10:44:52.191Z,852
2022-11-28T10:45:53.377Z,860
2022-11-28T10:46:53.962Z,868
2022-11-28T10:47:53.586Z,876
2022-11-28T10:48:54.250Z,888
2022-11-28T10:49:54.825Z,900
2022-11-28T10:50:54.745Z,912
2022-11-28T10:51:55.397Z,920
2022-11-28T10:52:56.606Z,932
2022-11-28T10:53:56.849Z,940
2022-11-28T10:54:58.039Z,952
2022-11-28T10:55:57.937Z,968
2022-11-28T10:56:58.476Z,980
2022-11-28T10:57:59.686Z,996
2022-11-28T10:59:00.906Z,1012
2022-11-28T11:00:00.805Z,1028
2022-11-28T11:01:01.915Z,1048
2022-11-28T11:02:01.970Z,1056
2022-11-28T11:03:02.331Z,1072
2022-11-28T11:04:03.234Z,1088
2022-11-28T11:05:04.084Z,1096
2022-11-28T11:06:04.354Z,1104
2022-11-28T11:07:35.153Z,1112
2022-11-28T11:08:21.886Z,1120
2022-11-28T11:09:22.343Z,1120
2022-11-28T11:10:22.668Z,1124
2022-11-28T11:11:23.647Z,1120
2022-11-28T11:12:24.581Z,1124
2022-11-28T11:13:24.777Z,1124
2022-11-28T11:14:25.272Z,1116
2022-11-28T11:15:24.919Z,1112
2022-11-28T11:16:26.027Z,1100
2022-11-28T11:17:30.115Z,1092
2022-11-28T11:18:27.831Z,1084
2022-11-28T11:19:28.045Z,1068
2022-11-28T11:20:28.663Z,1052
2022-11-28T11:21:28.876Z,1032
2022-11-28T11:22:29.231Z,1008
2022-11-28T11:23:32.764Z,988
2022-11-28T11:24:30.816Z,964
2022-11-28T11:25:31.011Z,944
2022-11-28T11:26:31.263Z,924
2022-11-28T11:27:31.305Z,904
2022-11-28T11:28:32.522Z,880
2022-11-28T11:29:32.722Z,856
2022-11-28T11:30:34.456Z,832
2022-11-28T11:31:34.871Z,812
2022-11-28T11:32:34.792Z,796
2022-11-28T11:33:35.409Z,784
2022-11-28T11:34:35.609Z,780
2022-11-28T11:35:35.519Z,776
2022-11-28T11:36:36.023Z,768
2022-11-28T11:37:35.991Z,760
2022-11-28T11:38:43.841Z,744
2022-11-28T11:39:37.188Z,728
2022-11-28T11:40:37.323Z,704
2022-11-28T11:41:37.951Z,680
2022-11-28T11:42:38.664Z,656
2022-11-28T11:43:39.870Z,632
2022-11-28T11:44:40.824Z,612
2022-11-28T11:45:40.474Z,596
2022-11-28T11:46:41.173Z,584
2022-11-28T11:47:41.401Z,572
2022-11-28T11:48:42.345Z,560
2022-11-28T11:49:43.485Z,540
2022-11-28T11:50:43.470Z,520
2022-11-28T11:51:49.130Z,500
2022-11-28T11:52:44.784Z,484
2022-11-28T11:53:45.010Z,468
2022-11-28T11:54:46.344Z,460
2022-11-28T11:55:46.549Z,452
2022-11-28T11:56:47.459Z,448
2022-11-28T11:57:54.116Z,448
2022-11-28T11:58:55.150Z,448
2022-11-28T11:59:56.660Z,444
2022-11-28T12:00:56.870Z,440
2022-11-28T12:01:57.085Z,440
2022-11-28T12:02:58.226Z,428
2022-11-28T12:03:58.949Z,420
2022-11-28T12:05:03.878Z,408
2022-11-28T12:06:24.540Z,392
2022-11-28T12:07:00.279Z,384
2022-11-28T12:08:01.684Z,372
2022-11-28T12:09:01.739Z,364
2022-11-28T12:10:10.513Z,352
2022-11-28T12:11:02.916Z,344
2022-11-28T12:12:03.825Z,340
2022-11-28T12:13:04.314Z,332
2022-11-28T12:14:05.632Z,328
2022-11-28T12:15:06.128Z,320
2022-11-28T12:16:06.680Z,320
2022-11-28T12:17:55.957Z,316
2022-11-28T12:18:46.062Z,316
2022-11-28T12:19:47.366Z,316
2022-11-28T12:20:47.840Z,316
2022-11-28T12:21:48.034Z,316
2022-11-28T12:22:48.645Z,316
2022-11-28T12:23:49.100Z,316
2022-11-28T12:24:49.921Z,316
2022-11-28T12:25:50.716Z,320
2022-11-28T12:26:50.756Z,324
2022-11-28T12:27:51.002Z,324
2022-11-28T12:28:51.443Z,328
2022-11-28T12:29:52.458Z,332
2022-11-28T12:30:56.153Z,336
2022-11-28T12:31:53.502Z,340
2022-11-28T12:32:53.734Z,344
2022-11-28T12:33:53.942Z,352
2022-11-28T12:34:54.164Z,352
2022-11-28T12:35:57.931Z,360
2022-11-28T12:36:55.057Z,364
2022-11-28T12:38:21.401Z,368
2022-11-28T12:39:09.737Z,372
2022-11-28T12:40:10.027Z,376
2022-11-28T12:41:10.334Z,384
2022-11-28T12:42:11.527Z,388
2022-11-28T12:43:12.147Z,396
2022-11-28T12:44:11.870Z,400
2022-11-28T12:45:13.485Z,404
2022-11-28T12:46:13.068Z,408
2022-11-28T12:47:14.391Z,408
2022-11-28T12:48:14.614Z,412
2022-11-28T12:49:15.661Z,420
2022-11-28T12:50:16.025Z,428
2022-11-28T12:51:17.191Z,444
2022-11-28T12:52:17.492Z,456
2022-11-28T12:53:17.466Z,472
2022-11-28T12:54:18.708Z,484
2022-11-28T12:55:18.651Z,496
2022-11-28T12:56:19.656Z,504
2022-11-28T12:57:20.156Z,512
2022-11-28T12:58:20.097Z,520
2022-11-28T12:59:20.151Z,520
2022-11-28T13:00:21.116Z,520
2022-11-28T13:01:20.784Z,520
2022-11-28T13:02:22.266Z,520
2022-11-28T13:03:22.508Z,520
2022-11-28T13:04:22.208Z,520
2022-11-28T13:05:23.707Z,520
2022-11-28T13:06:23.628Z,524
2022-11-28T13:07:24.368Z,528
2022-11-28T13:08:24.817Z,528
2022-11-28T13:09:25.949Z,532
2022-11-28T13:10:27.166Z,536
2022-11-28T13:11:27.142Z,540
2022-11-28T13:12:27.380Z,540
2022-11-28T13:13:28.288Z,544
2022-11-28T13:14:28.524Z,540
2022-11-28T13:15:28.446Z,540
2022-11-28T13:16:36.126Z,536
2022-11-28T13:17:30.791Z,532
2022-11-28T13:18:31.002Z,528
2022-11-28T13:19:31.740Z,528
2022-11-28T13:20:32.527Z,524
2022-11-28T13:21:33.501Z,520
2022-11-28T13:22:34.855Z,520
2022-11-28T13:23:36.084Z,516
2022-11-28T13:24:36.313Z,512
2022-11-28T13:25:36.511Z,504
2022-11-28T13:26:37.468Z,496
2022-11-28T13:27:38.727Z,484
2022-11-28T13:28:38.946Z,476
2022-11-28T13:29:39.714Z,464
2022-11-28T13:30:39.943Z,452
2022-11-28T13:31:41.232Z,448
2022-11-28T13:32:41.293Z,440
2022-11-28T13:33:41.940Z,432
2022-11-28T13:34:42.679Z,428
2022-11-28T13:35:42.775Z,428
2022-11-28T13:39:24.099Z,424
2022-11-28T13:40:20.505Z,428
2022-11-28T13:43:07.870Z,432
2022-11-28T13:43:25.189Z,432
2022-11-28T13:44:26.398Z,432
2022-11-28T13:45:39.104Z,428
2022-11-28T13:46:27.582Z,428
2022-11-28T13:47:28.933Z,424
2022-11-28T13:49:20.921Z,420
2022-11-28T13:49:38.617Z,420
2022-11-28T13:50:39.544Z,416
2022-11-28T13:51:43.099Z,412
2022-11-28T13:52:40.820Z,408
2022-11-28T13:53:41.109Z,408
2022-11-28T13:54:41.790Z,404
2022-11-28T13:55:42.448Z,404
2022-11-28T13:56:42.668Z,400
2022-11-28T13:57:44.062Z,396
2022-11-28T13:58:43.994Z,396
2022-11-28T13:59:43.907Z,392
2022-11-28T14:00:45.284Z,392
2022-11-28T14:01:45.787Z,388
2022-11-28T14:02:48.113Z,380
2022-11-28T14:03:49.647Z,380
2022-11-28T14:04:47.961Z,376
2022-11-28T14:05:49.000Z,368
2022-11-28T14:06:49.946Z,364
2022-11-28T14:07:49.341Z,360
2022-11-28T14:08:50.025Z,352
2022-11-28T14:09:52.208Z,344
2022-11-28T14:10:51.577Z,332
2022-11-28T14:11:52.516Z,328
2022-11-28T14:12:53.930Z,320
2022-11-28T14:13:54.435Z,316
2022-11-28T14:14:55.252Z,312
2022-11-28T14:15:55.816Z,308
2022-11-28T14:17:02.963Z,300
2022-11-28T14:17:56.835Z,296
2022-11-28T14:19:08.164Z,288
2022-11-28T14:19:58.097Z,280
2022-11-28T14:20:58.731Z,276
2022-11-28T14:21:59.055Z,272
2022-11-28T14:22:59.066Z,264
2022-11-28T14:23:59.822Z,260
2022-11-28T14:25:01.328Z,252
2022-11-28T14:26:01.572Z,248
2022-11-28T14:27:01.215Z,240
2022-11-28T14:28:01.897Z,236